createdAt,value
2023-02-27T16:19:16.246Z,40.70
2023-02-27T16:21:58.743Z,43.70
2023-02-27T16:24:30.654Z,42.70
2023-02-27T16:26:58.367Z,44.90
2023-02-27T16:29:33.772Z,47.30
2023-02-27T16:32:01.838Z,49.10
2023-02-27T16:34:44.762Z,46.40
2023-02-27T16:43:29.534Z,42.40
2023-02-27T16:45:58.449Z,46.40
2023-02-27T16:48:26.887Z,50.30
2023-02-27T16:50:54.824Z,52.70
2023-02-27T16:53:22.901Z,54.20
2023-02-27T16:55:50.921Z,55.20
2023-02-27T16:58:19.033Z,56.20
2023-02-27T17:00:48.995Z,56.60
2023-02-27T17:03:17.013Z,57.30
2023-02-27T17:05:44.968Z,58.00
2023-02-27T17:08:12.873Z,58.30
2023-02-27T17:10:40.876Z,58.60
2023-02-27T17:13:08.914Z,58.80
2023-02-27T17:15:36.915Z,59.00
2023-02-27T17:18:09.078Z,59.20
2023-02-27T17:20:37.376Z,59.50
2023-02-27T17:23:05.397Z,60.60
2023-02-27T17:25:33.362Z,60.60
2023-02-27T17:28:01.340Z,62.80
2023-02-27T17:30:29.608Z,63.20
2023-02-27T17:32:59.754Z,63.40
2023-02-27T17:35:30.995Z,63.20
2023-02-27T17:38:00.206Z,64.20
2023-02-27T17:40:28.377Z,64.90
2023-02-27T17:42:56.547Z,65.90
2023-02-27T17:45:27.056Z,66.80
2023-02-27T17:47:55.808Z,67.50
2023-02-27T17:50:23.958Z,67.00
2023-02-27T17:52:53.247Z,67.30
2023-02-27T17:55:21.476Z,67.50
2023-02-27T17:57:49.566Z,68.00
2023-02-27T18:00:18.080Z,68.10
2023-02-27T18:02:47.882Z,68.80
2023-02-27T18:05:16.136Z,68.80
2023-02-27T18:07:44.138Z,69.60
2023-02-27T18:10:15.763Z,70.20
2023-02-27T18:12:43.783Z,69.90
2023-02-27T18:15:12.225Z,70.30
2023-02-27T18:17:40.292Z,70.40
2023-02-27T18:20:10.156Z,70.00
2023-02-27T18:22:38.203Z,70.10
2023-02-27T18:25:07.773Z,70.40
2023-02-27T18:27:37.080Z,71.20
2023-02-27T18:30:05.564Z,70.30
2023-02-27T18:32:33.706Z,70.70
2023-02-27T18:35:02.004Z,71.60
2023-02-27T18:37:29.913Z,71.70
2023-02-27T18:39:57.884Z,71.70
2023-02-27T18:42:25.848Z,71.00
2023-02-27T18:44:55.213Z,70.40
2023-02-27T18:47:23.168Z,70.20
2023-02-27T18:49:51.852Z,70.20
2023-02-27T18:52:19.934Z,70.60
2023-02-27T18:54:47.991Z,70.20
2023-02-27T18:57:16.226Z,70.10
2023-02-27T18:59:46.459Z,70.20
2023-02-27T19:02:19.494Z,70.10
2023-02-27T19:04:48.702Z,70.40
2023-02-27T19:07:17.433Z,70.80
2023-02-27T19:09:45.587Z,70.70
2023-02-27T19:12:13.488Z,70.60
2023-02-27T19:14:41.838Z,70.60
2023-02-27T19:17:09.837Z,70.90
2023-02-27T19:19:39.291Z,71.40
2023-02-27T19:22:07.233Z,71.30
2023-02-27T19:24:35.314Z,72.20
2023-02-27T19:27:03.357Z,72.80
2023-02-27T19:29:31.304Z,72.80
2023-02-27T19:31:59.255Z,73.00
2023-02-27T19:34:27.443Z,73.00
2023-02-27T19:36:56.808Z,72.80
2023-02-27T19:39:24.747Z,73.10
2023-02-27T19:41:52.722Z,73.20
2023-02-27T19:44:21.466Z,73.30
2023-02-27T19:46:51.492Z,73.70
2023-02-27T19:49:20.130Z,74.00
2023-02-27T19:51:48.073Z,74.50
2023-02-27T19:54:17.807Z,75.80
2023-02-27T19:56:46.065Z,76.70
2023-02-27T19:59:14.167Z,76.80
2023-02-27T20:01:42.336Z,76.70
2023-02-27T20:04:11.547Z,76.50
2023-02-27T20:06:42.846Z,76.40
2023-02-27T20:09:13.177Z,76.60
2023-02-27T20:11:43.489Z,76.20
2023-02-27T20:14:11.675Z,76.40
2023-02-27T20:16:40.567Z,76.30
2023-02-27T20:19:11.637Z,76.40
2023-02-27T20:21:39.678Z,76.30
2023-02-27T20:24:10.345Z,76.50
2023-02-27T20:26:43.879Z,76.40
2023-02-27T20:29:13.858Z,77.10
2023-02-27T20:31:46.119Z,77.70
2023-02-27T20:34:16.477Z,77.40
2023-02-27T20:36:45.429Z,77.60
2023-02-27T20:39:13.483Z,77.80
2023-02-27T20:41:42.938Z,77.90
2023-02-27T20:44:11.576Z,77.60
2023-02-27T20:46:41.327Z,77.70
2023-02-27T20:49:11.678Z,77.90
2023-02-27T20:51:41.068Z,78.00
2023-02-27T20:54:13.054Z,78.30
2023-02-27T20:56:43.254Z,78.40
2023-02-27T20:59:14.017Z,78.20
2023-02-27T21:01:42.441Z,78.10
2023-02-27T21:04:10.546Z,78.20
2023-02-27T21:06:38.652Z,78.10
2023-02-27T21:09:07.813Z,77.90
2023-02-27T21:11:36.186Z,78.10
2023-02-27T21:14:09.271Z,77.90
2023-02-27T21:16:38.045Z,78.00
2023-02-27T21:19:06.786Z,77.50
2023-02-27T21:21:36.231Z,78.10
2023-02-27T21:24:05.614Z,78.00
2023-02-27T21:26:35.687Z,77.90
2023-02-27T21:29:08.681Z,77.90
2023-02-27T21:31:38.080Z,77.90
2023-02-27T21:34:09.210Z,77.60
2023-02-27T21:36:42.315Z,77.80
2023-02-27T21:39:13.676Z,77.80
2023-02-27T21:41:42.284Z,78.70
2023-02-27T21:44:15.596Z,79.10
2023-02-27T21:46:44.085Z,79.30
2023-02-27T21:49:17.274Z,79.20
2023-02-27T21:51:45.767Z,79.10
2023-02-27T21:54:15.249Z,79.30
2023-02-27T21:56:44.623Z,79.70
2023-02-27T21:59:15.124Z,79.80
2023-02-27T22:01:47.100Z,79.70
2023-02-27T22:04:15.846Z,79.50
2023-02-27T22:06:44.040Z,79.80
2023-02-27T22:09:12.468Z,79.80
2023-02-27T22:11:40.962Z,80.20
2023-02-27T22:14:10.246Z,80.10
2023-02-27T22:16:39.938Z,79.80
2023-02-27T22:19:08.473Z,79.90
2023-02-27T22:21:37.553Z,79.70
2023-02-27T22:24:06.512Z,79.80
2023-02-27T22:26:34.999Z,79.80
2023-02-27T22:29:03.515Z,79.80
2023-02-27T22:31:33.438Z,79.40
2023-02-27T22:34:05.419Z,79.30
2023-02-27T22:36:34.681Z,79.50
2023-02-27T22:39:02.607Z,79.30
2023-02-27T22:41:32.351Z,79.30
2023-02-27T22:44:01.402Z,79.20
2023-02-27T22:46:31.622Z,79.30
2023-02-27T22:49:01.373Z,79.10
2023-02-27T22:51:31.435Z,79.20
2023-02-27T22:54:03.185Z,79.30
2023-02-27T22:56:31.691Z,79.00
2023-02-27T22:59:00.177Z,78.70
2023-02-27T23:01:30.657Z,78.30
2023-02-27T23:04:01.286Z,78.00
2023-02-27T23:06:32.377Z,77.90
2023-02-27T23:09:00.650Z,77.90
2023-02-27T23:11:29.197Z,77.50
2023-02-27T23:13:57.346Z,77.20
2023-02-27T23:16:25.581Z,77.30
2023-02-27T23:18:55.593Z,77.20
2023-02-27T23:21:25.239Z,77.20
2023-02-27T23:23:54.651Z,77.30
2023-02-27T23:26:22.819Z,77.70
2023-02-27T23:28:50.664Z,78.30
2023-02-27T23:31:18.530Z,78.10
2023-02-27T23:33:46.557Z,78.40
2023-02-27T23:36:15.271Z,78.40
2023-02-27T23:38:46.336Z,78.50
2023-02-27T23:41:17.496Z,78.50
2023-02-27T23:43:45.655Z,78.50
2023-02-27T23:46:15.327Z,78.20
2023-02-27T23:48:43.797Z,77.90
2023-02-27T23:51:12.511Z,77.80
2023-02-27T23:53:41.655Z,77.50
2023-02-27T23:56:22.399Z,77.20
2023-02-27T23:58:55.651Z,77.00
